Time;durP1;ratioP1;P1;durP2;ratioP2;P2;SDS_P1;SDS_P2;PMS_P1;PMS_P2;Temp;Humidity;BMP_temperature;BMP_pressure;BME280_temperature;BME280_humidity;BME280_pressure;Samples;Min_cycle;Max_cycle;Signal;HPM_P1;HPM_P2
2021/11/13 00:01:07;;;;;;;;;134.75;109.75;;;;;-0.78;100.00;100075.38;6315662;20;3718046;-41
2021/11/13 00:03:38;;;;;;;;;120.33;98.33;;;;;-0.67;100.00;100077.94;6279818;20;3684672;-41
2021/11/13 00:06:08;;;;;;;;;93.00;65.00;;;;;-0.55;100.00;100079.59;6278918;20;3663849;-40
2021/11/13 00:08:38;;;;;;;;;107.00;91.67;;;;;-0.59;100.00;100072.56;6314322;20;3691951;-43
2021/11/13 00:11:10;;;;;;;;;119.67;99.67;;;;;-0.56;100.00;100064.63;6283028;20;3698325;-40
2021/11/13 00:13:40;;;;;;;;;118.00;95.33;;;;;-0.57;100.00;100076.06;6280858;20;3671211;-42
2021/11/13 00:16:10;;;;;;;;;121.00;98.33;;;;;-0.49;100.00;100074.25;6284435;20;3697157;-41
2021/11/13 00:18:40;;;;;;;;;113.33;90.33;;;;;-0.34;100.00;100079.34;6281917;20;3701411;-40
2021/11/13 00:21:10;;;;;;;;;117.00;98.00;;;;;-0.61;100.00;100083.13;6279597;20;3711848;-41
2021/11/13 00:23:40;;;;;;;;;116.67;99.67;;;;;-0.27;100.00;100080.16;6282575;20;3691948;-43
2021/11/13 00:26:10;;;;;;;;;115.00;88.67;;;;;-0.09;100.00;100089.63;6280436;20;3682746;-41
2021/11/13 00:28:40;;;;;;;;;104.67;87.67;;;;;-0.02;100.00;100083.38;6280455;20;3673281;-41
2021/11/13 00:31:09;;;;;;;;;85.33;60.33;;;;;-0.09;100.00;100082.56;6276482;20;2903492;-41
2021/11/13 00:33:38;;;;;;;;;102.00;78.33;;;;;0.38;100.00;100077.59;6313548;20;3695062;-41
2021/11/13 00:36:08;;;;;;;;;106.67;81.00;;;;;0.25;100.00;100083.94;6282243;20;3691976;-42
2021/11/13 00:38:38;;;;;;;;;105.67;82.67;;;;;0.19;100.00;100090.16;6278194;20;3684593;-43
2021/11/13 00:41:08;;;;;;;;;109.33;85.33;;;;;0.10;100.00;100079.69;6282067;20;3693993;-40
2021/11/13 00:43:38;;;;;;;;;111.00;88.25;;;;;0.20;100.00;100076.91;6280447;20;3712833;-41
2021/11/13 00:46:08;;;;;;;;;106.67;79.67;;;;;0.34;100.00;100083.78;6281713;20;3688853;-42
2021/11/13 00:48:38;;;;;;;;;107.00;84.67;;;;;0.42;100.00;100076.63;6282131;20;3684682;-43
2021/11/13 00:51:08;;;;;;;;;111.67;86.33;;;;;0.35;100.00;100067.06;6284176;20;3690931;-41
2021/11/13 00:53:38;;;;;;;;;101.67;75.67;;;;;0.52;100.00;100075.59;6282694;20;3671065;-40
2021/11/13 00:56:08;;;;;;;;;103.00;77.00;;;;;0.42;100.00;100079.28;6279587;20;3687909;-43
2021/11/13 00:58:38;;;;;;;;;100.33;72.67;;;;;0.69;100.00;100085.09;6279002;20;3675215;-42
2021/11/13 01:01:08;;;;;;;;;100.67;73.00;;;;;0.64;100.00;100078.06;6281830;20;3659756;-41
2021/11/13 01:03:38;;;;;;;;;101.33;73.67;;;;;0.68;100.00;100078.91;6312288;20;3670019;-41
2021/11/13 01:06:09;;;;;;;;;108.67;78.67;;;;;0.49;100.00;100067.72;6279806;20;3684634;-42
2021/11/13 01:08:40;;;;;;;;;110.33;80.33;;;;;0.17;100.00;100071.69;6277193;20;3692964;-42
2021/11/13 01:11:10;;;;;;;;;103.00;74.00;;;;;-0.22;100.00;100067.78;6278018;20;3669016;-43
2021/11/13 01:13:42;;;;;;;;;120.25;88.00;;;;;-0.31;100.00;100066.13;6313582;20;3704569;-41
2021/11/13 01:16:11;;;;;;;;;102.00;75.00;;;;;-0.33;100.00;100053.84;6280589;20;3671131;-42
2021/11/13 01:18:43;;;;;;;;;111.00;84.67;;;;;0.03;100.00;100057.81;6312564;20;3693125;-41
2021/11/13 01:21:14;;;;;;;;;123.75;90.25;;;;;-0.01;100.00;100064.00;6282807;20;3714780;-40
2021/11/13 01:23:45;;;;;;;;;126.00;91.33;;;;;0.08;100.00;100061.25;6310662;20;3685672;-41
2021/11/13 01:26:15;;;;;;;;;124.00;97.33;;;;;-0.06;100.00;100050.84;6279631;20;3702291;-43
2021/11/13 01:28:46;;;;;;;;;121.67;94.67;;;;;0.04;100.00;100045.47;6279866;20;3684621;-41
2021/11/13 01:31:15;;;;;;;;;118.67;95.00;;;;;0.22;100.00;100048.75;6283251;20;3683545;-42
2021/11/13 01:33:47;;;;;;;;;131.50;93.75;;;;;-0.06;100.00;100047.34;6280938;20;3706570;-41
2021/11/13 01:36:16;;;;;;;;;113.33;83.33;;;;;0.12;100.00;100040.97;6281697;20;3700197;-42
2021/11/13 01:38:46;;;;;;;;;110.67;84.33;;;;;0.07;100.00;100035.75;6280081;20;3703322;-43
2021/11/13 01:41:16;;;;;;;;;108.00;87.33;;;;;0.10;100.00;100033.06;6281409;20;3694008;-43
2021/11/13 01:43:46;;;;;;;;;119.67;98.33;;;;;0.13;100.00;100032.13;6278066;20;3688766;-42
2021/11/13 01:46:17;;;;;;;;;114.00;84.67;;;;;0.31;100.00;100031.03;6280128;20;3701274;-42
2021/11/13 01:48:47;;;;;;;;;109.00;79.00;;;;;0.26;100.00;100033.72;6280119;20;3699300;-42
2021/11/13 01:51:26;;;;;;;;;110.67;82.33;;;;;0.28;100.00;100031.94;6280895;20;3693948;-42
2021/11/13 01:54:05;;;;;;;;;103.00;79.00;;;;;0.29;100.00;100033.69;6281188;20;3672184;-42
2021/11/13 01:56:38;;;;;;;;;110.00;83.67;;;;;0.49;100.00;100030.75;6278218;20;3692082;-43
2021/11/13 01:59:10;;;;;;;;;110.00;85.67;;;;;0.54;100.00;100031.56;6279881;20;3694989;-41
2021/11/13 02:01:40;;;;;;;;;107.33;83.33;;;;;0.60;100.00;100034.09;6281553;20;3684616;-41
2021/11/13 02:04:10;;;;;;;;;110.00;79.67;;;;;0.61;100.00;100024.41;6279042;20;3680485;-41
2021/11/13 02:06:40;;;;;;;;;106.33;82.67;;;;;0.52;100.00;100033.34;6280460;20;3685693;-44
2021/11/13 02:09:10;;;;;;;;;104.33;77.67;;;;;0.40;100.00;100030.91;6276762;20;3681526;-42
2021/11/13 02:11:39;;;;;;;;;102.67;72.33;;;;;0.59;100.00;100034.13;6278856;20;3687750;-46
2021/11/13 02:14:09;;;;;;;;;101.67;72.67;;;;;0.63;100.00;100028.78;6280286;20;3682570;-43
2021/11/13 02:16:39;;;;;;;;;98.00;70.67;;;;;0.63;100.00;100031.44;6278504;20;3660633;-44
2021/11/13 02:19:09;;;;;;;;;100.33;71.67;;;;;0.63;100.00;100031.44;6276143;20;3664825;-43
2021/11/13 02:21:39;;;;;;;;;97.00;70.67;;;;;0.77;100.00;100025.06;6275484;20;3662747;-42
2021/11/13 02:24:10;;;;;;;;;95.33;71.00;;;;;0.74;100.00;100025.06;6310960;20;3661675;-42
2021/11/13 02:26:40;;;;;;;;;95.33;70.67;;;;;0.63;100.00;100022.59;6312500;20;3646083;-43
2021/11/13 02:29:10;;;;;;;;;84.67;60.67;;;;;0.41;100.00;100028.22;6311806;20;3669162;-43
2021/11/13 02:31:44;;;;;;;;;76.67;54.00;;;;;0.37;100.00;100025.63;6312924;20;3636215;-42
2021/11/13 02:34:14;;;;;;;;;77.33;57.33;;;;;0.41;100.00;100020.28;6311890;20;3638783;-42
2021/11/13 02:36:44;;;;;;;;;69.67;52.00;;;;;0.52;100.00;100025.41;6312975;20;2885872;-41
2021/11/13 02:39:14;;;;;;;;;76.33;54.67;;;;;0.14;100.00;100018.06;6310877;20;3635656;-43
2021/11/13 02:41:44;;;;;;;;;64.50;49.00;;;;;0.15;100.00;100015.38;6312562;20;2871169;-42
2021/11/13 02:44:16;;;;;;;;;61.00;49.50;;;;;0.25;100.00;100021.41;6279951;20;2860742;-42
2021/11/13 02:46:45;;;;;;;;;72.50;49.50;;;;;0.09;100.00;100022.53;6282307;20;2869165;-42
2021/11/13 02:49:16;;;;;;;;;72.67;50.67;;;;;0.26;100.00;100019.66;6281851;20;2876454;-41
2021/11/13 02:51:48;;;;;;;;;71.67;48.33;;;;;0.08;100.00;100024.31;6314867;20;2881528;-42
2021/11/13 02:54:17;;;;;;;;;62.00;47.00;;;;;0.24;100.00;100021.44;6315430;20;2867951;-42
2021/11/13 02:56:47;;;;;;;;;65.00;47.50;;;;;0.00;100.00;100020.91;6284516;20;2853390;-42
2021/11/13 02:59:17;;;;;;;;;65.33;45.00;;;;;0.12;100.00;100019.84;6284304;20;2868042;-42
2021/11/13 03:01:46;;;;;;;;;66.50;46.00;;;;;0.10;100.00;100022.50;6317663;20;2871155;-44
2021/11/13 03:04:15;;;;;;;;;69.33;49.00;;;;;0.19;100.00;100019.75;6283810;20;2887847;-42
2021/11/13 03:06:45;;;;;;;;;72.33;53.33;;;;;0.04;100.00;100022.59;6316673;20;2892130;-43
2021/11/13 03:09:15;;;;;;;;;53.00;42.67;;;;;0.35;100.00;100015.13;6315095;20;2866905;-41
2021/11/13 03:11:43;;;;;;;;;68.00;53.00;;;;;0.22;100.00;100022.34;6317384;20;2871102;-41
2021/11/13 03:14:13;;;;;;;;;65.75;47.50;;;;;0.09;100.00;100020.75;6282950;20;3635773;-43
2021/11/13 03:16:42;;;;;;;;;70.50;51.50;;;;;0.21;100.00;100019.69;6317345;20;2870067;-42
2021/11/13 03:19:12;;;;;;;;;63.50;46.50;;;;;0.06;100.00;100018.16;6279295;20;2492030;-42
2021/11/13 03:21:42;;;;;;;;;74.00;50.00;;;;;0.21;100.00;100020.59;6285746;20;2869065;-42
2021/11/13 03:24:11;;;;;;;;;62.00;49.00;;;;;0.31;100.00;100021.31;6283470;20;2858645;-43
2021/11/13 03:26:42;;;;;;;;;69.00;50.33;;;;;0.23;100.00;100017.91;6283098;20;2879523;-42
2021/11/13 03:29:30;;;;;;;;;64.00;54.00;;;;;0.38;100.00;100011.56;6313458;20;2855556;-44
2021/11/13 03:32:00;;;;;;;;;70.00;55.67;;;;;0.27;100.00;100014.34;6281112;20;2875260;-42
2021/11/13 03:34:33;;;;;;;;;73.67;55.33;;;;;0.29;100.00;100019.59;6313152;20;3636136;-43
2021/11/13 03:37:03;;;;;;;;;77.33;59.33;;;;;0.59;100.00;100021.78;6316093;20;3648186;-43
2021/11/13 03:39:32;;;;;;;;;77.67;58.33;;;;;0.49;100.00;100014.03;6313781;20;2896239;-43
2021/11/13 03:42:02;;;;;;;;;76.00;56.00;;;;;0.41;100.00;100025.56;6312807;20;2883828;-44
2021/11/13 03:44:32;;;;;;;;;61.00;47.00;;;;;0.43;100.00;100021.16;6315332;20;2865957;-42
2021/11/13 03:47:02;;;;;;;;;75.67;52.67;;;;;0.42;100.00;100022.06;6315620;20;3646082;-42
2021/11/13 03:49:29;;;;;;;;;61.50;49.50;;;;;0.59;100.00;100019.16;6311172;20;2500374;-42
2021/11/13 03:51:59;;;;;;;;;71.33;52.00;;;;;0.54;100.00;100017.47;6284034;20;3613837;-41
2021/11/13 03:54:31;;;;;;;;;75.33;53.67;;;;;0.41;100.00;100016.78;6316105;20;3639864;-43
2021/11/13 03:57:00;;;;;;;;;69.00;52.50;;;;;0.56;100.00;100013.91;6313168;20;2871127;-45
2021/11/13 03:59:30;;;;;;;;;59.67;46.33;;;;;0.41;100.00;100016.78;6282073;20;2876333;-42
2021/11/13 04:02:00;;;;;;;;;68.50;53.00;;;;;0.33;100.00;100018.66;6314969;20;2860781;-42
2021/11/13 04:04:30;;;;;;;;;73.00;58.33;;;;;0.41;100.00;100019.44;6282244;20;2879553;-44
2021/11/13 04:06:59;;;;;;;;;63.33;46.33;;;;;0.63;100.00;100023.50;6312729;20;3630442;-43
2021/11/13 04:09:29;;;;;;;;;74.67;54.67;;;;;0.54;100.00;100028.03;6313542;20;2885779;-42
2021/11/13 04:12:04;;;;;;;;;74.33;58.33;;;;;0.47;100.00;100021.09;6314422;20;3632904;-43
2021/11/13 04:14:36;;;;;;;;;96.67;66.00;;;;;0.26;100.00;100025.78;6315443;20;3650259;-43
2021/11/13 04:17:05;;;;;;;;;70.00;55.00;;;;;0.41;100.00;100022.94;6312364;20;2493996;-43
2021/11/13 04:19:35;;;;;;;;;87.00;57.33;;;;;0.31;100.00;100023.97;6281917;20;3651281;-48
2021/11/13 04:22:06;;;;;;;;;82.33;62.33;;;;;0.16;100.00;100017.16;6313211;20;3638779;-46
2021/11/13 04:24:36;;;;;;;;;82.33;57.67;;;;;0.10;100.00;100014.56;6314243;20;3655601;-51
2021/11/13 04:27:06;;;;;;;;;86.33;64.00;;;;;0.11;100.00;100016.34;6311574;20;3635656;-48
2021/11/13 04:29:36;;;;;;;;;87.00;62.33;;;;;0.43;100.00;100015.00;6312217;20;3663750;-46
2021/11/13 04:32:06;;;;;;;;;56.00;24.67;;;;;0.46;100.00;100007.03;6313169;20;3591203;-50
2021/11/13 04:37:20;;;;;;;;;77.00;55.67;;;;;0.39;100.00;100008.88;6313926;20;3637749;-50
2021/11/13 04:39:50;;;;;;;;;77.33;54.00;;;;;0.49;100.00;100009.63;6310064;20;3642937;-45
2021/11/13 04:42:20;;;;;;;;;78.33;59.67;;;;;0.26;100.00;100006.44;6314184;20;3636813;-49
2021/11/13 04:44:51;;;;;;;;;86.33;65.00;;;;;0.39;100.00;100011.50;6314971;20;3631006;-49
2021/11/13 04:47:20;;;;;;;;;82.67;57.33;;;;;0.76;100.00;100003.00;6314980;20;3659764;-53
2021/11/13 04:49:50;;;;;;;;;92.00;66.00;;;;;0.56;100.00;100006.00;6277160;20;3645009;-49
2021/11/13 04:52:19;;;;;;;;;74.33;55.00;;;;;0.26;100.00;100002.03;6314851;20;3642269;-49
2021/11/13 04:54:49;;;;;;;;;73.67;50.00;;;;;0.40;100.00;99993.94;6313234;20;2880450;-46
2021/11/13 04:57:19;;;;;;;;;79.33;52.33;;;;;0.33;100.00;100002.81;6313736;20;3649214;-48
2021/11/13 04:59:48;;;;;;;;;74.67;54.00;;;;;0.30;100.00;99994.97;6312367;20;3631503;-48
2021/11/13 05:02:18;;;;;;;;;75.33;55.00;;;;;0.02;100.00;99997.97;6315283;20;3626339;-50
2021/11/13 05:04:53;;;;;;;;;77.00;56.00;;;;;0.12;100.00;100001.38;6313019;20;3647132;-48
2021/11/13 05:07:24;;;;;;;;;76.00;51.67;;;;;0.20;100.00;100003.00;6313866;20;3639939;-47
2021/11/13 05:09:54;;;;;;;;;80.33;58.33;;;;;0.15;100.00;100010.09;6312311;20;3639977;-49
2021/11/13 05:12:24;;;;;;;;;76.67;50.33;;;;;0.29;100.00;100014.31;6312451;20;2890085;-46
2021/11/13 05:14:54;;;;;;;;;73.67;53.33;;;;;0.18;100.00;100010.06;6313534;20;3642049;-49
2021/11/13 05:17:23;;;;;;;;;78.00;57.00;;;;;0.18;100.00;100015.34;6313910;20;3645062;-49
2021/11/13 05:19:56;;;;;;;;;73.00;53.33;;;;;0.48;100.00;100010.53;6314449;20;2870082;-49
2021/11/13 05:22:26;;;;;;;;;90.00;64.33;;;;;0.37;100.00;100009.78;6313745;20;3661675;-50
2021/11/13 05:24:55;;;;;;;;;92.67;66.33;;;;;0.34;100.00;100021.31;6276478;20;3639815;-52
2021/11/13 05:27:24;;;;;;;;;80.00;62.50;;;;;0.34;100.00;100017.75;6313300;20;2876424;-51
2021/11/13 05:29:54;;;;;;;;;89.33;63.33;;;;;0.41;100.00;100011.50;6282671;20;3654381;-50
2021/11/13 05:32:24;;;;;;;;;77.67;56.00;;;;;0.46;100.00;100014.94;6312328;20;3650288;-49
2021/11/13 05:34:53;;;;;;;;;87.67;64.00;;;;;0.53;100.00;100016.63;6314240;20;3647129;-47
2021/11/13 05:37:23;;;;;;;;;93.00;65.33;;;;;0.54;100.00;100012.19;6313303;20;3654416;-47
2021/11/13 05:39:53;;;;;;;;;91.67;66.33;;;;;0.61;100.00;100025.28;6307993;20;3638786;-47
2021/11/13 05:42:23;;;;;;;;;85.33;64.67;;;;;0.68;100.00;100026.03;6313556;20;3645122;-46
2021/11/13 05:44:52;;;;;;;;;81.00;55.00;;;;;0.48;100.00;100018.44;6313126;20;3631612;-48
2021/11/13 05:47:24;;;;;;;;;75.00;56.00;;;;;0.60;100.00;100026.16;6312805;20;3623322;-50
2021/11/13 05:49:55;;;;;;;;;73.33;55.33;;;;;0.47;100.00;100024.59;6310826;20;3639849;-50
2021/11/13 05:52:26;;;;;;;;;78.00;59.33;;;;;0.41;100.00;100019.44;6312188;20;3644043;-46
2021/11/13 05:54:55;;;;;;;;;78.33;53.33;;;;;0.48;100.00;100026.38;6311773;20;3645068;-45
2021/11/13 05:57:25;;;;;;;;;70.33;54.00;;;;;0.41;100.00;100022.06;6311528;20;2877459;-49
2021/11/13 05:59:55;;;;;;;;;79.33;59.00;;;;;0.58;100.00;100025.34;6312528;20;3637881;-48
2021/11/13 06:02:25;;;;;;;;;79.33;56.00;;;;;0.73;100.00;100028.63;6310300;20;3646059;-49
2021/11/13 06:04:54;;;;;;;;;67.00;54.67;;;;;0.38;100.00;100027.41;6312449;20;2874286;-46
2021/11/13 06:07:24;;;;;;;;;58.00;36.33;;;;;0.28;100.00;100031.06;6311710;20;3638895;-47
2021/11/13 06:09:54;;;;;;;;;73.67;52.00;;;;;0.16;100.00;100029.47;6312072;20;3638800;-51
2021/11/13 06:12:23;;;;;;;;;87.67;60.33;;;;;0.17;100.00;100034.72;6311285;20;3669003;-46
2021/11/13 06:14:53;;;;;;;;;72.00;55.67;;;;;0.33;100.00;100047.72;6277303;20;2876517;-51
2021/11/13 06:17:23;;;;;;;;;82.33;53.67;;;;;0.56;100.00;100042.13;6309849;20;3653375;-46
2021/11/13 06:19:53;;;;;;;;;77.00;56.33;;;;;0.38;100.00;100048.53;6308702;20;2875409;-49
2021/11/13 06:22:24;;;;;;;;;73.67;58.00;;;;;0.38;100.00;100043.25;6317235;20;2876439;-50
2021/11/13 06:24:53;;;;;;;;;61.00;43.00;;;;;0.50;100.00;100052.75;6316045;20;2880504;-48
2021/11/13 06:27:23;;;;;;;;;71.67;54.00;;;;;0.59;100.00;100052.63;6283537;20;2881679;-48
2021/11/13 06:29:52;;;;;;;;;72.33;53.67;;;;;0.45;100.00;100052.84;6313308;20;2881695;-51
2021/11/13 06:32:22;;;;;;;;;75.33;54.67;;;;;0.60;100.00;100064.94;6315884;20;3648163;-48
2021/11/13 06:34:56;;;;;;;;;80.00;54.00;;;;;0.72;100.00;100058.59;6315878;20;3649209;-47
2021/11/13 06:37:27;;;;;;;;;68.50;54.00;;;;;0.58;100.00;100056.16;6315926;20;2867965;-49
2021/11/13 06:39:56;;;;;;;;;66.50;53.00;;;;;0.63;100.00;100060.50;6285348;20;2870076;-49
2021/11/13 06:42:26;;;;;;;;;64.67;49.00;;;;;0.66;100.00;100059.56;6285263;20;2866976;-47
2021/11/13 06:44:57;;;;;;;;;70.50;50.00;;;;;0.67;100.00;100068.38;6316711;20;2862810;-50
2021/11/13 06:47:27;;;;;;;;;75.33;51.00;;;;;0.68;100.00;100067.47;6283833;20;3649408;-49
2021/11/13 06:49:56;;;;;;;;;69.50;55.50;;;;;0.74;100.00;100080.56;6315157;20;2865984;-49
2021/11/13 06:52:26;;;;;;;;;70.67;50.00;;;;;0.83;100.00;100081.31;6281733;20;2875371;-47
2021/11/13 06:54:56;;;;;;;;;71.67;53.33;;;;;0.88;100.00;100075.97;6316474;20;3635630;-49
2021/11/13 06:57:25;;;;;;;;;84.67;61.33;;;;;0.65;100.00;100073.66;6315841;20;3661730;-47
2021/11/13 06:59:55;;;;;;;;;73.67;54.67;;;;;0.83;100.00;100069.88;6315014;20;2883569;-46
2021/11/13 07:02:25;;;;;;;;;71.33;54.33;;;;;0.81;100.00;100077.81;6316020;20;3638797;-46
2021/11/13 07:04:54;;;;;;;;;79.00;58.00;;;;;0.90;100.00;100082.09;6317071;20;3644030;-47
2021/11/13 07:07:24;;;;;;;;;87.67;59.67;;;;;0.90;100.00;100084.75;6314407;20;3668027;-48
2021/11/13 07:09:53;;;;;;;;;82.33;52.67;;;;;0.95;100.00;100087.28;6283210;20;2886797;-46
2021/11/13 07:12:23;;;;;;;;;83.00;58.33;;;;;1.02;100.00;100084.53;6315164;20;2884771;-47
2021/11/13 07:14:53;;;;;;;;;74.33;55.33;;;;;0.94;100.00;100081.13;6314499;20;2880540;-50
2021/11/13 07:17:22;;;;;;;;;68.67;51.00;;;;;0.95;100.00;100084.66;6314940;20;2884872;-50
2021/11/13 07:19:52;;;;;;;;;69.00;53.33;;;;;0.85;100.00;100084.81;6313348;20;3635794;-49
2021/11/13 07:22:23;;;;;;;;;79.33;60.33;;;;;0.98;100.00;100079.34;6315845;20;3641055;-49
2021/11/13 07:24:52;;;;;;;;;85.67;61.33;;;;;1.38;100.00;100087.47;6312296;20;3639852;-51
2021/11/13 07:27:21;;;;;;;;;38.67;18.00;;;;;1.08;100.00;100078.28;6313301;20;3584719;-47
2021/11/13 07:30:02;;;;;;;;;68.00;50.00;;;;;1.13;100.00;100086.13;6310928;20;2873276;-47
2021/11/13 07:32:32;;;;;;;;;346.25;278.50;;;;;1.09;100.00;100086.19;6316126;20;4465887;-50
2021/11/13 07:35:02;;;;;;;;;324.50;269.50;;;;;1.09;100.00;100090.59;6315650;20;4487219;-48
2021/11/13 07:37:33;;;;;;;;;226.00;192.50;;;;;1.13;100.00;100080.84;6314673;20;4488853;-50
2021/11/13 07:40:07;;;;;;;;;83.67;59.67;;;;;1.10;100.00;100085.28;6283529;20;3652344;-47
2021/11/13 07:42:37;;;;;;;;;83.33;63.33;;;;;1.22;100.00;100083.34;6308838;20;3629436;-46
2021/11/13 07:45:07;;;;;;;;;75.00;55.33;;;;;1.23;100.00;100091.22;6313421;20;3641998;-49
2021/11/13 07:47:41;;;;;;;;;58.67;42.33;;;;;1.33;100.00;100088.44;6312407;20;3628381;-50
2021/11/13 07:50:14;;;;;;;;;128.00;105.50;;;;;1.35;100.00;100086.66;6310384;20;1951364;-48
2021/11/13 07:52:45;;;;;;;;;84.00;61.67;;;;;1.32;100.00;100087.56;6281960;20;3649228;-47
2021/11/13 07:55:17;;;;;;;;;66.67;53.00;;;;;1.16;100.00;100086.97;6314434;20;2874284;-47
2021/11/13 07:57:47;;;;;;;;;70.33;53.00;;;;;1.45;100.00;100088.22;6314494;20;2883658;-50
2021/11/13 08:00:20;;;;;;;;;76.00;61.33;;;;;1.41;100.00;100092.69;6313380;20;2877448;-45
2021/11/13 08:02:50;;;;;;;;;76.33;54.33;;;;;1.39;100.00;100105.06;6315669;20;3630452;-48
2021/11/13 08:05:20;;;;;;;;;71.00;55.00;;;;;1.28;100.00;100096.44;6314810;20;2874324;-46
2021/11/13 08:07:50;;;;;;;;;82.00;54.00;;;;;1.64;100.00;100104.66;6312248;20;3633667;-44
2021/11/13 08:10:20;;;;;;;;;71.00;58.50;;;;;1.56;100.00;100103.91;6311256;20;2864862;-46
2021/11/13 08:12:51;;;;;;;;;75.00;56.00;;;;;1.51;100.00;100094.28;6240432;20;2686697;-48
2021/11/13 08:15:20;;;;;;;;;59.50;52.50;;;;;1.57;100.00;100100.34;6311827;20;2858620;-48
2021/11/13 08:17:50;;;;;;;;;68.67;53.00;;;;;1.47;100.00;100095.22;6277959;20;2875274;-48
2021/11/13 08:20:20;;;;;;;;;63.33;43.67;;;;;1.55;100.00;100095.06;6314199;20;2888876;-47
2021/11/13 08:22:50;;;;;;;;;77.33;55.00;;;;;1.61;100.00;100099.41;6315996;20;3635645;-49
2021/11/13 08:25:19;;;;;;;;;72.00;55.00;;;;;1.66;100.00;100090.47;6314361;20;2867975;-47
2021/11/13 08:27:49;;;;;;;;;70.33;50.00;;;;;1.73;100.00;100091.22;6283474;20;2871069;-49
2021/11/13 08:30:20;;;;;;;;;77.33;55.67;;;;;1.92;100.00;100094.38;6311090;20;3651308;-47
2021/11/13 08:32:50;;;;;;;;;73.00;53.67;;;;;2.00;100.00;100097.75;6315013;20;3632478;-48
2021/11/13 08:35:20;;;;;;;;;74.33;56.67;;;;;1.86;100.00;100095.38;6315144;20;3625242;-46
2021/11/13 08:37:50;;;;;;;;;73.33;57.67;;;;;1.69;100.00;100097.50;6312669;20;3626235;-47
2021/11/13 08:40:20;;;;;;;;;68.00;40.33;;;;;1.81;100.00;100099.03;6314370;20;2896200;-44
2021/11/13 08:42:49;;;;;;;;;91.00;69.67;;;;;1.88;100.00;100100.66;6312912;20;3619073;-47
2021/11/13 08:45:19;;;;;;;;;80.00;58.33;;;;;1.73;100.00;100101.81;6312302;20;3640838;-45
2021/11/13 08:47:51;;;;;;;;;68.67;53.33;;;;;1.81;100.00;100102.53;6312459;20;2870049;-46
2021/11/13 08:50:29;;;;;;;;;75.33;58.67;;;;;2.01;100.00;100103.94;6310879;20;2892290;-49
2021/11/13 08:53:03;;;;;;;;;86.00;63.33;;;;;2.00;100.00;100094.22;6314588;20;3658553;-48
2021/11/13 08:55:38;;;;;;;;;67.00;51.33;;;;;2.08;100.00;100102.91;6277436;20;3630443;-47
2021/11/13 08:58:09;;;;;;;;;86.00;63.00;;;;;1.78;100.00;100096.44;6312764;20;3653358;-45
2021/11/13 09:00:51;;;;;;;;;79.00;57.33;;;;;1.96;100.00;100096.09;6314570;20;3647112;-45
2021/11/13 09:03:37;;;;;;;;;113.00;91.50;;;;;2.11;100.00;100097.56;6313594;20;3699277;-47
2021/11/13 09:06:18;;;;;;;;;126.25;105.50;;;;;2.22;100.00;100097.34;6315620;20;4483520;-45
2021/11/13 09:08:51;;;;;;;;;164.50;113.75;;;;;2.42;100.00;100103.97;6279199;20;4480482;-45
2021/11/13 09:11:25;;;;;;;;;82.33;55.67;;;;;2.27;100.00;100101.63;6314473;20;3660639;-47
2021/11/13 09:13:56;;;;;;;;;74.00;58.00;;;;;2.14;100.00;100084.25;6313411;20;3629424;-47
2021/11/13 09:16:26;;;;;;;;;74.67;57.33;;;;;2.51;100.00;100086.97;6314320;20;3639791;-45
2021/11/13 09:18:56;;;;;;;;;77.00;58.67;;;;;2.26;100.00;100089.25;6312676;20;3630412;-45
2021/11/13 09:21:29;;;;;;;;;79.00;60.00;;;;;2.38;100.00;100088.16;6313636;20;3632662;-45
2021/11/13 09:24:01;;;;;;;;;73.67;58.67;;;;;2.50;100.00;100084.34;6312719;20;3615833;-50
2021/11/13 09:26:32;;;;;;;;;77.00;59.00;;;;;2.40;100.00;100083.69;6311450;20;3622097;-46
2021/11/13 09:29:04;;;;;;;;;87.67;62.00;;;;;2.64;100.00;100076.97;6309653;20;3651507;-45
2021/11/13 09:31:35;;;;;;;;;89.67;66.33;;;;;2.61;100.00;100077.03;6310796;20;3639855;-46
2021/11/13 09:34:20;;;;;;;;;104.67;72.67;;;;;2.79;100.00;100078.38;6311469;20;3689815;-46
2021/11/13 09:36:51;;;;;;;;;105.50;83.00;;;;;2.78;100.00;100082.81;6276202;20;3703382;-46
2021/11/13 09:39:21;;;;;;;;;96.33;74.00;;;;;2.67;100.00;100074.25;6275005;20;3666877;-46
2021/11/13 09:41:53;;;;;;;;;130.00;114.25;;;;;2.68;100.00;100078.63;6278002;20;3705505;-47
2021/11/13 09:44:23;;;;;;;;;226.25;179.50;;;;;2.67;100.00;100076.03;6310583;20;4483598;-46
2021/11/13 09:46:59;;;;;;;;;98.33;66.00;;;;;2.68;100.00;100070.66;6273699;20;3662779;-45
2021/11/13 09:49:31;;;;;;;;;219.25;189.75;;;;;2.64;100.00;100074.31;6276674;20;4470071;-45
2021/11/13 09:52:01;;;;;;;;;121.00;82.33;;;;;2.66;100.00;100077.81;6308838;20;3692898;-47
2021/11/13 09:54:35;;;;;;;;;215.50;175.00;;;;;2.76;100.00;100075.81;6281978;20;4458572;-47
2021/11/13 09:57:04;;;;;;;;;179.00;149.00;;;;;2.58;100.00;100067.38;6306079;20;1951416;-46
2021/11/13 09:59:35;;;;;;;;;95.33;77.00;;;;;2.57;100.00;100067.41;6278113;20;3649222;-46
2021/11/13 10:02:06;;;;;;;;;106.75;83.75;;;;;2.64;100.00;100063.72;6311154;20;3697325;-47
2021/11/13 10:04:35;;;;;;;;;89.67;63.00;;;;;2.53;100.00;100071.91;6278907;20;3639852;-46
2021/11/13 10:07:05;;;;;;;;;98.33;70.00;;;;;2.69;100.00;100071.56;6312041;20;3655540;-44
2021/11/13 10:09:36;;;;;;;;;206.25;160.25;;;;;2.75;100.00;100068.75;6277537;20;3708782;-47
2021/11/13 10:12:07;;;;;;;;;93.67;70.00;;;;;2.85;100.00;100071.16;6279792;20;3668969;-50
2021/11/13 10:14:41;;;;;;;;;92.33;66.33;;;;;3.10;100.00;100062.59;6280945;20;3653929;-48
2021/11/13 10:17:24;;;;;;;;;102.33;79.33;;;;;2.90;100.00;100063.09;6281737;20;3685619;-46
2021/11/13 10:19:55;;;;;;;;;89.33;64.00;;;;;3.19;100.00;100065.03;6279663;20;3648307;-46
2021/11/13 10:22:23;;;;;;;;;82.00;61.67;;;;;2.98;100.00;100053.19;6278222;20;2892041;-45
2021/11/13 10:24:54;;;;;;;;;81.33;58.00;;;;;2.89;100.00;100049.88;6307877;20;3635246;-44
2021/11/13 10:27:24;;;;;;;;;79.33;57.00;;;;;3.03;100.00;100050.41;6310611;20;3642952;-45
2021/11/13 10:29:53;;;;;;;;;80.67;58.67;;;;;2.98;100.00;100047.88;6312041;20;3642989;-46
2021/11/13 10:32:23;;;;;;;;;86.67;65.33;;;;;3.01;100.00;100053.09;6311350;20;3635659;-45
2021/11/13 10:34:54;;;;;;;;;93.67;63.00;;;;;2.70;100.00;100052.97;6312624;20;3642002;-45
2021/11/13 10:37:31;;;;;;;;;93.33;66.67;;;;;3.00;100.00;100050.47;6309883;20;3652363;-47
2021/11/13 10:40:05;;;;;;;;;92.67;66.33;;;;;2.99;100.00;100043.44;6276587;20;3641856;-47
2021/11/13 10:42:33;;;;;;;;;171.00;125.50;;;;;3.17;100.00;100040.31;6308969;20;1953473;-46
2021/11/13 10:45:05;;;;;;;;;69.33;56.67;;;;;3.04;100.00;100046.84;6280792;20;3622230;-45
2021/11/13 10:47:41;;;;;;;;;84.33;60.00;;;;;3.10;100.00;100036.06;6311257;20;3660196;-46
2021/11/13 10:50:26;;;;;;;;;87.33;64.33;;;;;3.07;100.00;100042.31;6278402;20;3643974;-45
2021/11/13 10:53:09;;;;;;;;;82.00;59.00;;;;;3.03;100.00;100047.75;6311066;20;3646077;-45
2021/11/13 10:55:59;;;;;;;;;93.00;67.00;;;;;3.16;100.00;100048.31;6311810;20;3660664;-46
2021/11/13 10:58:38;;;;;;;;;148.00;105.00;;;;;3.32;100.00;100046.13;6307950;20;3704563;-45
2021/11/13 11:01:28;;;;;;;;;273.75;203.50;;;;;3.29;100.00;100045.31;6280601;20;4464836;-49
2021/11/13 11:04:06;;;;;;;;;91.00;68.67;;;;;3.22;100.00;100040.22;6312365;20;3660767;-45
2021/11/13 11:06:41;;;;;;;;;77.33;55.00;;;;;3.29;100.00;100031.16;6279886;20;3640872;-49
2021/11/13 11:09:41;;;;;;;;;149.25;111.00;;;;;3.30;100.00;100031.13;6313524;20;3710834;-45
2021/11/13 11:12:15;;;;;;;;;81.67;60.67;;;;;3.31;100.00;100024.03;6281067;20;3643974;-45